Time;durP1;ratioP1;P1;durP2;ratioP2;P2;SDS_P1;SDS_P2;PMS_P1;PMS_P2;Temp;Humidity;BMP_temperature;BMP_pressure;BME280_temperature;BME280_humidity;BME280_pressure;Samples;Min_cycle;Max_cycle;Signal;HPM_P1;HPM_P2
2024/02/24 00:01:38;;;;;;;3.92;1.58;;;;;;;;;;5958575;24;20453;-72
2024/02/24 00:04:04;;;;;;;2.92;1.40;;;;;;;;;;5960421;24;20126;-72
2024/02/24 00:06:30;;;;;;;5.00;1.20;;;;;;;;;;5959874;24;20012;-73
2024/02/24 00:08:55;;;;;;;3.83;1.33;;;;;;;;;;5959305;24;20015;-72
2024/02/24 00:11:21;;;;;;;3.33;1.08;;;;;;;;;;5958519;24;20060;-73
2024/02/24 00:13:47;;;;;;;2.13;1.37;;;;;;;;;;5959379;24;20042;-71
2024/02/24 00:16:14;;;;;;;2.33;1.33;;;;;;;;;;5960722;24;20012;-73
2024/02/24 00:18:39;;;;;;;3.15;1.70;;;;;;;;;;5960625;24;20015;-74
2024/02/24 00:21:05;;;;;;;3.43;1.70;;;;;;;;;;5959138;24;20012;-73
2024/02/24 00:23:30;;;;;;;4.27;1.50;;;;;;;;;;5984518;24;20039;-73
2024/02/24 00:25:56;;;;;;;4.23;1.73;;;;;;;;;;5959205;24;20484;-72
2024/02/24 00:28:22;;;;;;;1.60;1.13;;;;;;;;;;5959294;24;20450;-71
2024/02/24 00:30:47;;;;;;;4.13;1.50;;;;;;;;;;5959774;24;20011;-73
2024/02/24 00:33:13;;;;;;;4.67;1.10;;;;;;;;;;5959402;24;20083;-72
2024/02/24 00:35:39;;;;;;;2.37;2.17;;;;;;;;;;5983868;24;20004;-71
2024/02/24 00:38:05;;;;;;;2.17;1.37;;;;;;;;;;5958999;24;20350;-72
2024/02/24 00:40:31;;;;;;;1.80;1.30;;;;;;;;;;5958064;24;20041;-72
2024/02/24 00:42:56;;;;;;;2.43;1.10;;;;;;;;;;5957688;24;20012;-75
2024/02/24 00:45:22;;;;;;;3.93;1.63;;;;;;;;;;5957823;24;20426;-71
2024/02/24 00:47:47;;;;;;;4.90;1.50;;;;;;;;;;5982469;24;20012;-70
2024/02/24 00:50:13;;;;;;;5.43;1.40;;;;;;;;;;5958250;24;20004;-73
2024/02/24 00:52:40;;;;;;;2.80;1.20;;;;;;;;;;5982773;23;20020;-72
2024/02/24 00:55:06;;;;;;;1.33;1.13;;;;;;;;;;5958288;24;20012;-72
2024/02/24 00:57:31;;;;;;;4.67;1.67;;;;;;;;;;5958133;24;20023;-72
2024/02/24 00:59:57;;;;;;;2.87;1.37;;;;;;;;;;5984010;24;20031;-72
2024/02/24 01:02:23;;;;;;;5.47;2.00;;;;;;;;;;5958099;24;20390;-71
2024/02/24 01:04:52;;;;;;;2.93;1.10;;;;;;;;;;5983043;24;20019;-71
2024/02/24 01:07:18;;;;;;;2.33;1.53;;;;;;;;;;5982905;24;20083;-72
2024/02/24 01:09:43;;;;;;;2.60;1.50;;;;;;;;;;5958267;24;20000;-73
2024/02/24 01:12:10;;;;;;;3.27;1.77;;;;;;;;;;5982501;24;20375;-73
2024/02/24 01:14:36;;;;;;;2.83;1.73;;;;;;;;;;5982937;24;20011;-73
2024/02/24 01:17:01;;;;;;;7.00;1.67;;;;;;;;;;5957911;24;20342;-69
2024/02/24 01:19:27;;;;;;;3.67;1.57;;;;;;;;;;5982599;24;20469;-70
2024/02/24 01:21:52;;;;;;;6.47;1.80;;;;;;;;;;5958056;24;20058;-72
2024/02/24 01:24:18;;;;;;;4.47;1.80;;;;;;;;;;5982847;24;20004;-71
2024/02/24 01:26:44;;;;;;;3.70;1.70;;;;;;;;;;5957865;24;20011;-73
2024/02/24 01:29:10;;;;;;;2.30;1.80;;;;;;;;;;5958003;24;20434;-73
2024/02/24 01:31:36;;;;;;;3.20;1.50;;;;;;;;;;5957461;24;20004;-72
2024/02/24 01:34:01;;;;;;;3.33;1.47;;;;;;;;;;5982048;24;20004;-73
2024/02/24 01:36:27;;;;;;;3.73;1.70;;;;;;;;;;5982669;24;20015;-71
2024/02/24 01:38:54;;;;;;;1.73;1.17;;;;;;;;;;5982903;24;20082;-73
2024/02/24 01:41:20;;;;;;;4.03;1.27;;;;;;;;;;5957024;24;20020;-71
2024/02/24 01:43:45;;;;;;;2.87;1.53;;;;;;;;;;5957349;24;20095;-72
2024/02/24 01:46:15;;;;;;;2.57;1.37;;;;;;;;;;5957466;24;20442;-72
2024/02/24 01:48:40;;;;;;;3.13;1.80;;;;;;;;;;5959396;24;20004;-72
2024/02/24 01:51:08;;;;;;;4.07;1.90;;;;;;;;;;5982615;23;20043;-72
2024/02/24 01:53:36;;;;;;;4.30;1.80;;;;;;;;;;5983547;24;20004;-71
2024/02/24 01:56:06;;;;;;;3.47;1.57;;;;;;;;;;5958560;24;20007;-72
2024/02/24 01:58:36;;;;;;;2.80;1.50;;;;;;;;;;5982452;24;20059;-73
2024/02/24 02:01:02;;;;;;;4.07;2.60;;;;;;;;;;5934375;24;20091;-73
2024/02/24 02:03:27;;;;;;;4.23;2.03;;;;;;;;;;5960292;24;20015;-73
2024/02/24 02:05:53;;;;;;;5.30;1.87;;;;;;;;;;5985465;24;20008;-75
2024/02/24 02:08:19;;;;;;;3.50;2.30;;;;;;;;;;5983899;24;20020;-73
2024/02/24 02:10:52;;;;;;;5.57;2.23;;;;;;;;;;5958346;24;20497;-72
2024/02/24 02:13:18;;;;;;;4.60;2.10;;;;;;;;;;5957588;24;20087;-71
2024/02/24 02:15:44;;;;;;;3.10;1.90;;;;;;;;;;5958027;24;20118;-71
2024/02/24 02:18:10;;;;;;;3.87;2.57;;;;;;;;;;5985251;24;20012;-70
2024/02/24 02:20:36;;;;;;;8.13;3.07;;;;;;;;;;5960142;24;20530;-72
2024/02/24 02:23:02;;;;;;;6.40;3.00;;;;;;;;;;5983578;24;20009;-72
2024/02/24 02:25:28;;;;;;;9.53;3.40;;;;;;;;;;5982488;24;20054;-74
2024/02/24 02:27:53;;;;;;;4.33;2.57;;;;;;;;;;5983499;24;20008;-72
2024/02/24 02:30:19;;;;;;;6.07;2.77;;;;;;;;;;5957146;24;20008;-71
2024/02/24 02:32:44;;;;;;;5.80;2.77;;;;;;;;;;5957956;24;20030;-71
2024/02/24 02:35:11;;;;;;;4.33;2.70;;;;;;;;;;5957814;24;20008;-70
2024/02/24 02:37:37;;;;;;;5.27;2.53;;;;;;;;;;5982067;24;20008;-72
2024/02/24 02:40:03;;;;;;;5.97;2.83;;;;;;;;;;5957508;24;20068;-73
2024/02/24 02:42:28;;;;;;;5.13;2.37;;;;;;;;;;5956899;24;20508;-73
2024/02/24 02:44:54;;;;;;;4.50;2.77;;;;;;;;;;5981402;24;20063;-73
2024/02/24 02:47:20;;;;;;;3.40;2.23;;;;;;;;;;5956757;24;20064;-72
2024/02/24 02:49:45;;;;;;;7.23;3.10;;;;;;;;;;5983144;23;20007;-74
2024/02/24 02:52:12;;;;;;;3.90;2.80;;;;;;;;;;5958562;23;20362;-72
2024/02/24 02:54:38;;;;;;;5.97;2.80;;;;;;;;;;5962552;24;20019;-72
2024/02/24 02:57:04;;;;;;;5.50;2.47;;;;;;;;;;5986332;24;20004;-73
2024/02/24 02:59:34;;;;;;;5.53;2.80;;;;;;;;;;5958060;24;20015;-72
2024/02/24 03:02:00;;;;;;;5.33;2.43;;;;;;;;;;5956988;24;20016;-72
2024/02/24 03:04:25;;;;;;;5.30;2.67;;;;;;;;;;5956767;24;20012;-72
2024/02/24 03:06:51;;;;;;;7.23;2.90;;;;;;;;;;5956676;24;20008;-72
2024/02/24 03:09:17;;;;;;;5.67;2.20;;;;;;;;;;5956890;24;20012;-72
2024/02/24 03:11:44;;;;;;;6.90;2.73;;;;;;;;;;5957272;24;20071;-73
2024/02/24 03:14:10;;;;;;;5.20;2.40;;;;;;;;;;5980848;24;20008;-73
2024/02/24 03:16:36;;;;;;;4.93;2.93;;;;;;;;;;5956870;24;20061;-72
2024/02/24 03:19:03;;;;;;;7.13;2.93;;;;;;;;;;5957799;24;20064;-70
2024/02/24 03:21:34;;;;;;;3.97;2.23;;;;;;;;;;5959148;24;20012;-73
2024/02/24 03:24:00;;;;;;;5.00;2.40;;;;;;;;;;5959706;24;20004;-72
2024/02/24 03:26:26;;;;;;;8.83;3.07;;;;;;;;;;5984181;24;20279;-75
2024/02/24 03:28:52;;;;;;;3.97;2.27;;;;;;;;;;5958342;24;20047;-72
2024/02/24 03:31:17;;;;;;;6.00;3.03;;;;;;;;;;5958208;24;20010;-72
2024/02/24 03:33:43;;;;;;;4.10;2.57;;;;;;;;;;5957436;24;20012;-72
2024/02/24 03:36:18;;;;;;;4.67;2.57;;;;;;;;;;5957931;24;20012;-72
2024/02/24 03:38:44;;;;;;;6.87;2.53;;;;;;;;;;5957243;24;20012;-71
2024/02/24 03:41:10;;;;;;;7.53;2.30;;;;;;;;;;5957596;24;20087;-72
2024/02/24 03:43:38;;;;;;;2.70;1.87;;;;;;;;;;5982008;24;20030;-71
2024/02/24 03:46:04;;;;;;;5.53;2.10;;;;;;;;;;5982133;24;20008;-72
2024/02/24 03:48:31;;;;;;;2.83;2.07;;;;;;;;;;5956724;24;20055;-72
2024/02/24 03:50:58;;;;;;;6.30;2.20;;;;;;;;;;5983981;23;20014;-74
2024/02/24 03:53:25;;;;;;;2.77;2.07;;;;;;;;;;5958543;24;20060;-73
2024/02/24 03:55:51;;;;;;;3.83;2.27;;;;;;;;;;5959069;24;20161;-73
2024/02/24 03:58:18;;;;;;;2.70;1.80;;;;;;;;;;5983807;24;20380;-72
2024/02/24 04:00:44;;;;;;;6.87;2.60;;;;;;;;;;5958548;24;20091;-72
2024/02/24 04:03:10;;;;;;;5.17;2.00;;;;;;;;;;5959225;24;20438;-72
2024/02/24 04:05:35;;;;;;;3.13;2.10;;;;;;;;;;5959044;24;20012;-73
2024/02/24 04:08:01;;;;;;;4.70;2.23;;;;;;;;;;5959270;24;20011;-71
2024/02/24 04:10:28;;;;;;;3.90;2.20;;;;;;;;;;5958292;24;20071;-72
2024/02/24 04:12:53;;;;;;;6.10;2.67;;;;;;;;;;5983767;24;20473;-73
2024/02/24 04:15:19;;;;;;;3.33;2.17;;;;;;;;;;5958406;24;20008;-71
2024/02/24 04:17:46;;;;;;;3.60;1.90;;;;;;;;;;5983347;24;20004;-71
2024/02/24 04:20:13;;;;;;;3.23;1.93;;;;;;;;;;5958170;24;20105;-72
2024/02/24 04:22:39;;;;;;;6.53;2.67;;;;;;;;;;5958017;24;20010;-72
2024/02/24 04:25:05;;;;;;;6.13;2.03;;;;;;;;;;5982985;24;20015;-74
2024/02/24 04:27:31;;;;;;;4.40;2.13;;;;;;;;;;5982930;24;20444;-71
2024/02/24 04:29:57;;;;;;;6.53;2.10;;;;;;;;;;5957894;24;20019;-72
2024/02/24 04:32:22;;;;;;;5.37;2.57;;;;;;;;;;5958501;24;20345;-72
2024/02/24 04:34:48;;;;;;;6.50;2.13;;;;;;;;;;5957689;24;20018;-71
2024/02/24 04:37:14;;;;;;;2.93;2.57;;;;;;;;;;5958564;24;20016;-71
2024/02/24 04:39:39;;;;;;;4.90;2.70;;;;;;;;;;5958208;24;20439;-71
2024/02/24 04:42:06;;;;;;;2.57;2.07;;;;;;;;;;5958701;24;20343;-72
2024/02/24 04:44:32;;;;;;;4.47;2.30;;;;;;;;;;5983649;24;20000;-71
2024/02/24 04:46:57;;;;;;;4.20;2.10;;;;;;;;;;5958425;24;20004;-72
2024/02/24 04:49:23;;;;;;;5.47;2.40;;;;;;;;;;5983635;23;20070;-72
2024/02/24 04:51:48;;;;;;;3.97;2.50;;;;;;;;;;5960019;23;20296;-70
2024/02/24 04:54:14;;;;;;;3.83;2.50;;;;;;;;;;5960282;24;20012;-71
2024/02/24 04:56:40;;;;;;;3.70;2.60;;;;;;;;;;5984504;24;20467;-72
2024/02/24 04:59:05;;;;;;;4.93;2.20;;;;;;;;;;5984215;24;20068;-73
2024/02/24 05:01:31;;;;;;;6.03;2.97;;;;;;;;;;5983944;24;20330;-73
2024/02/24 05:03:57;;;;;;;3.93;2.83;;;;;;;;;;5959939;24;20403;-72
2024/02/24 05:06:22;;;;;;;3.33;2.43;;;;;;;;;;5959147;24;20012;-73
2024/02/24 05:08:48;;;;;;;3.73;2.37;;;;;;;;;;5958827;24;20004;-72
2024/02/24 05:11:14;;;;;;;4.73;2.77;;;;;;;;;;5960069;24;20000;-72
2024/02/24 05:13:39;;;;;;;3.53;2.80;;;;;;;;;;5986047;24;20004;-72
2024/02/24 05:16:06;;;;;;;6.37;2.90;;;;;;;;;;5961031;24;20354;-71
2024/02/24 05:18:32;;;;;;;4.73;3.20;;;;;;;;;;5985548;24;20693;-71
2024/02/24 05:21:01;;;;;;;4.53;2.33;;;;;;;;;;5985978;24;20012;-73
2024/02/24 05:23:26;;;;;;;6.03;2.23;;;;;;;;;;5959405;24;20012;-69
2024/02/24 05:25:52;;;;;;;5.30;2.87;;;;;;;;;;5959241;24;20070;-72
2024/02/24 05:28:18;;;;;;;4.70;2.40;;;;;;;;;;5959526;24;20121;-72
2024/02/24 05:30:43;;;;;;;8.33;2.60;;;;;;;;;;5960832;24;20029;-72
2024/02/24 05:33:09;;;;;;;3.70;2.60;;;;;;;;;;5961355;24;20438;-72
2024/02/24 05:35:35;;;;;;;3.67;2.23;;;;;;;;;;5959413;24;20004;-71
2024/02/24 05:38:00;;;;;;;6.57;2.43;;;;;;;;;;5958527;24;20015;-72
2024/02/24 05:40:26;;;;;;;4.03;2.60;;;;;;;;;;5959285;24;20462;-73
2024/02/24 05:42:52;;;;;;;6.80;2.67;;;;;;;;;;5958543;24;20019;-72
2024/02/24 05:45:18;;;;;;;3.50;2.60;;;;;;;;;;5958432;24;20035;-71
2024/02/24 05:47:45;;;;;;;5.27;2.93;;;;;;;;;;5958124;24;20572;-71
2024/02/24 05:50:11;;;;;;;6.47;2.77;;;;;;;;;;5957529;24;20004;-72
2024/02/24 05:52:37;;;;;;;5.43;3.20;;;;;;;;;;5958062;23;20380;-73
2024/02/24 05:55:04;;;;;;;7.13;3.43;;;;;;;;;;5958208;24;20054;-73
2024/02/24 05:57:31;;;;;;;6.07;4.10;;;;;;;;;;5983000;24;20004;-72
2024/02/24 05:59:56;;;;;;;4.37;3.03;;;;;;;;;;5982709;24;20016;-72
2024/02/24 06:02:22;;;;;;;5.90;3.73;;;;;;;;;;5958556;24;20015;-74
2024/02/24 06:04:48;;;;;;;5.03;3.27;;;;;;;;;;5983301;24;20008;-72
2024/02/24 06:07:17;;;;;;;6.57;3.90;;;;;;;;;;5958460;24;20008;-71
2024/02/24 06:09:42;;;;;;;5.57;3.20;;;;;;;;;;5957970;24;20012;-72
2024/02/24 06:12:08;;;;;;;8.10;3.37;;;;;;;;;;5958515;24;20012;-72
2024/02/24 06:14:35;;;;;;;4.73;3.10;;;;;;;;;;5958434;24;20004;-73
2024/02/24 06:17:01;;;;;;;4.63;3.37;;;;;;;;;;5935583;24;20076;-72
2024/02/24 06:19:27;;;;;;;5.60;3.60;;;;;;;;;;5959940;24;20068;-72
2024/02/24 06:21:52;;;;;;;6.50;3.63;;;;;;;;;;5960543;24;20016;-73
2024/02/24 06:24:19;;;;;;;7.33;3.93;;;;;;;;;;5960421;24;20004;-72
2024/02/24 06:26:44;;;;;;;8.23;4.17;;;;;;;;;;5961166;24;20010;-72
2024/02/24 06:29:11;;;;;;;7.47;4.13;;;;;;;;;;5960462;24;20039;-73
2024/02/24 06:31:38;;;;;;;5.50;3.50;;;;;;;;;;5984471;24;20027;-72
2024/02/24 06:34:04;;;;;;;6.07;3.80;;;;;;;;;;5984124;24;20180;-72
2024/02/24 06:36:29;;;;;;;5.83;4.30;;;;;;;;;;5959805;24;20342;-73
2024/02/24 06:38:56;;;;;;;5.57;3.80;;;;;;;;;;5958886;24;20310;-72
2024/02/24 06:41:25;;;;;;;5.17;3.70;;;;;;;;;;5983826;24;20012;-72
2024/02/24 06:43:51;;;;;;;6.73;5.37;;;;;;;;;;5960212;24;20290;-74
2024/02/24 06:46:17;;;;;;;6.43;3.87;;;;;;;;;;5959250;24;20020;-72
2024/02/24 06:48:43;;;;;;;7.03;4.03;;;;;;;;;;5959221;24;20070;-72
2024/02/24 06:51:08;;;;;;;9.73;3.73;;;;;;;;;;5984726;23;20007;-72
2024/02/24 06:53:34;;;;;;;4.33;3.43;;;;;;;;;;5960314;24;20011;-73
2024/02/24 06:56:10;;;;;;;5.20;3.47;;;;;;;;;;5959882;24;20079;-72
2024/02/24 06:58:36;;;;;;;8.43;4.23;;;;;;;;;;5959832;24;20014;-72
2024/02/24 07:01:03;;;;;;;6.37;3.60;;;;;;;;;;5963125;24;20012;-71
2024/02/24 07:03:32;;;;;;;8.93;3.70;;;;;;;;;;5960976;24;20044;-73
2024/02/24 07:06:00;;;;;;;6.13;3.93;;;;;;;;;;5959651;24;20008;-72
2024/02/24 07:08:26;;;;;;;6.53;3.60;;;;;;;;;;5959512;24;20004;-72
2024/02/24 07:10:51;;;;;;;4.33;2.83;;;;;;;;;;5960093;24;20060;-72
2024/02/24 07:13:17;;;;;;;4.93;3.37;;;;;;;;;;5955309;24;20065;-75
2024/02/24 07:15:43;;;;;;;4.47;3.60;;;;;;;;;;5954448;24;20008;-74
2024/02/24 07:18:08;;;;;;;6.23;3.77;;;;;;;;;;5955502;24;20019;-71
2024/02/24 07:20:34;;;;;;;7.07;4.07;;;;;;;;;;5979908;24;20004;-73
2024/02/24 07:22:59;;;;;;;7.73;3.67;;;;;;;;;;5955101;24;20012;-73
2024/02/24 07:25:25;;;;;;;5.50;3.80;;;;;;;;;;5956538;24;20031;-72
2024/02/24 07:27:50;;;;;;;6.83;3.57;;;;;;;;;;5956114;24;20012;-71
2024/02/24 07:30:16;;;;;;;6.50;4.00;;;;;;;;;;5983147;24;20055;-73
2024/02/24 07:32:41;;;;;;;6.30;4.00;;;;;;;;;;5984457;24;20107;-74
2024/02/24 07:35:07;;;;;;;6.60;3.93;;;;;;;;;;5985353;24;20036;-73
2024/02/24 07:37:33;;;;;;;8.63;4.37;;;;;;;;;;5959994;24;20429;-72
2024/02/24 07:40:00;;;;;;;6.37;3.47;;;;;;;;;;5962243;24;20016;-74
2024/02/24 07:42:25;;;;;;;6.00;3.37;;;;;;;;;;5960943;24;20005;-73
2024/02/24 07:44:51;;;;;;;8.50;3.57;;;;;;;;;;5960957;24;20020;-74
2024/02/24 07:47:17;;;;;;;5.10;3.47;;;;;;;;;;5961580;24;20012;-72
2024/02/24 07:49:43;;;;;;;12.93;4.43;;;;;;;;;;5961938;24;20364;-72
2024/02/24 07:52:09;;;;;;;10.70;4.00;;;;;;;;;;5962149;24;20052;-74
2024/02/24 07:54:34;;;;;;;7.13;4.03;;;;;;;;;;5936377;24;20015;-72
2024/02/24 07:57:00;;;;;;;7.70;4.07;;;;;;;;;;5956186;24;20011;-73
2024/02/24 07:59:25;;;;;;;3.70;2.83;;;;;;;;;;5955779;24;20019;-73
2024/02/24 08:01:51;;;;;;;6.37;3.67;;;;;;;;;;5980559;24;20008;-73
2024/02/24 08:04:16;;;;;;;4.70;3.43;;;;;;;;;;5955677;24;20016;-73
2024/02/24 08:06:42;;;;;;;4.93;3.20;;;;;;;;;;5980181;24;20315;-73
2024/02/24 08:09:08;;;;;;;6.20;3.33;;;;;;;;;;5955601;24;20004;-73
2024/02/24 08:11:39;;;;;;;10.17;3.70;;;;;;;;;;5980231;24;20014;-74
2024/02/24 08:14:07;;;;;;;4.57;3.10;;;;;;;;;;5955438;24;20413;-73
2024/02/24 08:16:33;;;;;;;5.37;2.90;;;;;;;;;;5955095;24;20498;-72
2024/02/24 08:18:58;;;;;;;4.97;3.03;;;;;;;;;;5954960;24;20008;-72
2024/02/24 08:21:24;;;;;;;8.20;3.27;;;;;;;;;;5956367;24;20342;-72
2024/02/24 08:23:49;;;;;;;3.50;2.40;;;;;;;;;;5956001;24;20019;-72
2024/02/24 08:26:15;;;;;;;4.13;2.73;;;;;;;;;;5980280;24;20223;-73
2024/02/24 08:28:40;;;;;;;3.43;2.50;;;;;;;;;;5954852;24;20012;-75
2024/02/24 08:31:06;;;;;;;5.80;2.83;;;;;;;;;;5980724;24;20410;-75
2024/02/24 08:33:31;;;;;;;3.13;2.30;;;;;;;;;;5980280;24;20024;-72
2024/02/24 08:35:57;;;;;;;5.53;2.97;;;;;;;;;;5954515;24;20349;-74
2024/02/24 08:38:23;;;;;;;2.47;2.20;;;;;;;;;;5955219;24;20060;-73
2024/02/24 08:40:48;;;;;;;4.03;2.60;;;;;;;;;;5979700;24;20438;-72
2024/02/24 08:43:14;;;;;;;3.40;2.37;;;;;;;;;;5980210;24;20306;-72
2024/02/24 08:45:39;;;;;;;5.13;1.83;;;;;;;;;;5955121;24;20016;-73
2024/02/24 08:48:05;;;;;;;6.17;2.40;;;;;;;;;;5979870;24;20008;-73
2024/02/24 08:50:31;;;;;;;3.53;2.37;;;;;;;;;;5955306;24;20019;-72
2024/02/24 08:52:56;;;;;;;3.63;2.20;;;;;;;;;;5979551;23;20225;-73
2024/02/24 08:55:22;;;;;;;6.03;2.53;;;;;;;;;;5955286;24;20442;-72
2024/02/24 08:57:47;;;;;;;7.03;2.13;;;;;;;;;;5954975;24;20027;-73
2024/02/24 09:00:13;;;;;;;4.77;2.00;;;;;;;;;;5954827;24;20008;-74
2024/02/24 09:02:39;;;;;;;4.90;2.27;;;;;;;;;;5954545;24;20080;-71
2024/02/24 09:05:05;;;;;;;4.40;2.10;;;;;;;;;;5954649;24;20008;-72
2024/02/24 09:07:30;;;;;;;2.33;2.13;;;;;;;;;;5979538;24;20015;-73
2024/02/24 09:09:56;;;;;;;3.17;2.17;;;;;;;;;;5955051;24;20004;-73
2024/02/24 09:12:21;;;;;;;3.35;1.88;;;;;;;;;;5955076;24;20016;-74
2024/02/24 09:14:47;;;;;;;3.95;1.90;;;;;;;;;;5978938;24;20016;-73
2024/02/24 09:17:13;;;;;;;3.40;2.10;;;;;;;;;;5954986;24;20004;-74
2024/02/24 09:19:42;;;;;;;7.67;2.13;;;;;;;;;;5954845;24;20034;-73
2024/02/24 09:22:07;;;;;;;4.53;2.43;;;;;;;;;;5979764;24;20022;-73
2024/02/24 09:24:34;;;;;;;2.70;1.87;;;;;;;;;;5954783;24;20438;-73
2024/02/24 09:27:00;;;;;;;3.13;2.08;;;;;;;;;;5931508;24;20032;-74
2024/02/24 09:29:26;;;;;;;6.22;2.10;;;;;;;;;;5954864;24;20016;-74
2024/02/24 09:31:51;;;;;;;2.75;2.22;;;;;;;;;;5979449;24;20405;-72
2024/02/24 09:34:18;;;;;;;4.72;1.95;;;;;;;;;;5954617;24;20015;-73
2024/02/24 09:36:44;;;;;;;2.40;2.20;;;;;;;;;;5954518;24;20000;-73
2024/02/24 09:39:11;;;;;;;6.75;1.90;;;;;;;;;;5980324;24;20008;-73
2024/02/24 09:41:37;;;;;;;2.83;1.70;;;;;;;;;;5954551;24;20012;-73
2024/02/24 09:44:04;;;;;;;2.97;2.22;;;;;;;;;;5954264;24;20519;-74
2024/02/24 09:46:30;;;;;;;3.42;1.88;;;;;;;;;;5978709;24;20008;-75
2024/02/24 09:48:56;;;;;;;3.25;1.50;;;;;;;;;;5979103;24;20386;-73
2024/02/24 09:51:21;;;;;;;2.42;1.30;;;;;;;;;;5954595;24;20051;-72
2024/02/24 09:53:47;;;;;;;2.28;1.77;;;;;;;;;;5980060;24;20075;-73
2024/02/24 09:56:16;;;;;;;5.18;1.73;;;;;;;;;;5955646;24;20036;-74
2024/02/24 09:58:43;;;;;;;2.13;1.38;;;;;;;;;;5954339;24;20005;-73
2024/02/24 10:01:09;;;;;;;3.55;2.13;;;;;;;;;;5933233;24;20022;-74
2024/02/24 10:03:35;;;;;;;2.78;1.85;;;;;;;;;;5955675;24;20012;-73
2024/02/24 10:06:01;;;;;;;4.18;1.48;;;;;;;;;;5954249;24;20016;-73
2024/02/24 10:08:26;;;;;;;2.40;1.52;;;;;;;;;;5979086;24;20060;-74
2024/02/24 10:10:52;;;;;;;2.55;1.55;;;;;;;;;;5954507;24;20502;-74
2024/02/24 10:13:19;;;;;;;3.67;1.52;;;;;;;;;;5954103;24;20395;-73
2024/02/24 10:15:45;;;;;;;5.00;1.40;;;;;;;;;;5954179;24;20481;-75
2024/02/24 10:18:11;;;;;;;3.17;2.25;;;;;;;;;;5954510;24;20088;-72
2024/02/24 10:20:36;;;;;;;4.45;2.00;;;;;;;;;;5953998;24;20090;-73
2024/02/24 10:23:02;;;;;;;2.90;1.60;;;;;;;;;;5978511;24;20007;-74
2024/02/24 10:25:28;;;;;;;4.53;1.40;;;;;;;;;;5979254;24;20007;-72
2024/02/24 10:27:54;;;;;;;4.15;1.58;;;;;;;;;;5978860;24;20064;-75
2024/02/24 10:30:20;;;;;;;4.80;1.60;;;;;;;;;;5954282;24;20008;-72
2024/02/24 10:32:47;;;;;;;2.08;1.27;;;;;;;;;;5954070;24;20422;-73
2024/02/24 10:35:13;;;;;;;1.15;1.05;;;;;;;;;;5955172;24;20095;-73
2024/02/24 10:37:39;;;;;;;2.42;1.08;;;;;;;;;;5954047;24;20012;-73
2024/02/24 10:40:06;;;;;;;3.35;1.35;;;;;;;;;;5954071;24;20099;-74
2024/02/24 10:42:32;;;;;;;1.65;1.50;;;;;;;;;;5978868;24;20008;-74
2024/02/24 10:44:58;;;;;;;2.25;1.30;;;;;;;;;;5954216;24;20043;-71
2024/02/24 10:47:24;;;;;;;3.13;1.20;;;;;;;;;;5953858;24;20080;-73
2024/02/24 10:49:49;;;;;;;2.85;1.65;;;;;;;;;;5953692;24;20016;-72
2024/02/24 10:52:18;;;;;;;2.70;1.67;;;;;;;;;;5978320;23;20506;-72
2024/02/24 10:54:46;;;;;;;2.45;1.55;;;;;;;;;;5979029;24;20051;-74
2024/02/24 10:57:14;;;;;;;2.35;1.80;;;;;;;;;;5955220;24;20031;-72
2024/02/24 10:59:40;;;;;;;2.53;2.05;;;;;;;;;;5982321;24;20004;-72
2024/02/24 11:02:06;;;;;;;1.58;1.25;;;;;;;;;;5980673;24;20524;-72
2024/02/24 11:04:39;;;;;;;3.28;1.50;;;;;;;;;;5956400;24;20008;-73
2024/02/24 11:07:06;;;;;;;2.83;1.60;;;;;;;;;;5956275;24;20044;-71
2024/02/24 11:09:39;;;;;;;4.32;1.50;;;;;;;;;;5962366;24;20018;-72
2024/02/24 11:12:08;;;;;;;2.13;1.20;;;;;;;;;;5947199;24;20064;-73
2024/02/24 11:14:45;;;;;;;4.90;1.60;;;;;;;;;;5963866;24;20008;-73
2024/02/24 11:17:11;;;;;;;3.65;1.95;;;;;;;;;;5956182;24;20330;-72
2024/02/24 11:19:48;;;;;;;4.53;1.35;;;;;;;;;;5955911;24;20015;-73
2024/02/24 11:22:30;;;;;;;2.05;1.83;;;;;;;;;;5956124;24;20074;-72
2024/02/24 11:24:59;;;;;;;;;;;;;;;;;;5980914;24;20012;-73
2024/02/24 11:27:31;;;;;;;4.50;1.40;;;;;;;;;;5956568;24;19913;-72
2024/02/24 11:30:38;;;;;;;3.05;1.23;;;;;;;;;;5956624;24;20387;-73
2024/02/24 11:33:25;;;;;;;1.88;1.38;;;;;;;;;;5956210;24;20008;-73
2024/02/24 11:35:53;;;;;;;1.95;1.35;;;;;;;;;;5980163;24;20004;-73
2024/02/24 11:38:19;;;;;;;1.73;1.38;;;;;;;;;;5955821;24;20091;-74
2024/02/24 11:40:48;;;;;;;1.95;1.38;;;;;;;;;;5957175;24;20421;-72
2024/02/24 11:43:14;;;;;;;1.63;1.20;;;;;;;;;;5981737;24;20032;-74
2024/02/24 11:45:55;;;;;;;2.13;1.33;;;;;;;;;;5956331;24;20000;-72
2024/02/24 11:48:21;;;;;;;2.22;1.50;;;;;;;;;;5955786;24;20155;-73
2024/02/24 11:50:48;;;;;;;3.58;1.60;;;;;;;;;;5955555;24;20338;-73
2024/02/24 11:53:16;;;;;;;1.40;1.27;;;;;;;;;;5980440;23;20102;-74
2024/02/24 11:55:42;;;;;;;4.30;1.05;;;;;;;;;;5956121;24;20008;-72
2024/02/24 11:58:08;;;;;;;1.25;1.13;;;;;;;;;;5956170;24;20103;-73
2024/02/24 12:00:37;;;;;;;1.42;1.33;;;;;;;;;;5980868;24;20060;-74
2024/02/24 12:03:04;;;;;;;2.28;1.50;;;;;;;;;;5979853;24;20015;-74
2024/02/24 12:05:30;;;;;;;1.77;1.13;;;;;;;;;;5980976;24;20034;-74
2024/02/24 12:08:04;;;;;;;1.70;1.10;;;;;;;;;;5980596;24;20004;-74
2024/02/24 12:10:37;;;;;;;3.05;1.35;;;;;;;;;;5954843;24;20008;-75
2024/02/24 12:13:08;;;;;;;2.47;1.50;;;;;;;;;;5955171;24;20062;-74
2024/02/24 12:15:34;;;;;;;2.55;1.42;;;;;;;;;;5955635;24;20056;-73
2024/02/24 12:18:04;;;;;;;1.17;0.93;;;;;;;;;;5954995;24;20015;-72
2024/02/24 12:20:30;;;;;;;3.67;1.20;;;;;;;;;;5955059;24;20017;-74
2024/02/24 12:23:07;;;;;;;2.92;1.55;;;;;;;;;;5979581;24;20008;-74
2024/02/24 12:25:33;;;;;;;2.38;1.45;;;;;;;;;;5980639;24;20000;-74
2024/02/24 12:28:00;;;;;;;2.15;1.08;;;;;;;;;;5955075;24;20020;-73
2024/02/24 12:30:33;;;;;;;4.18;1.63;;;;;;;;;;5955499;24;20008;-73
2024/02/24 12:32:59;;;;;;;1.10;1.00;;;;;;;;;;5956841;24;20318;-73
2024/02/24 12:35:24;;;;;;;2.65;1.10;;;;;;;;;;5982344;24;20083;-73
2024/02/24 12:37:51;;;;;;;2.72;1.20;;;;;;;;;;5955767;24;20323;-71
2024/02/24 12:40:34;;;;;;;1.50;0.88;;;;;;;;;;5981381;24;20045;-74
2024/02/24 12:43:01;;;;;;;1.60;1.25;;;;;;;;;;5958705;24;20016;-72
2024/02/24 12:45:27;;;;;;;2.53;1.20;;;;;;;;;;5957641;24;20094;-73
2024/02/24 12:47:54;;;;;;;2.47;1.10;;;;;;;;;;5957089;24;20004;-73
2024/02/24 12:50:21;;;;;;;1.20;0.88;;;;;;;;;;5981943;23;20004;-74
2024/02/24 12:52:48;;;;;;;0.95;0.80;;;;;;;;;;5955269;23;20505;-75
2024/02/24 12:55:15;;;;;;;4.55;1.40;;;;;;;;;;5954699;24;20068;-72
2024/02/24 12:57:41;;;;;;;3.80;1.10;;;;;;;;;;5980331;24;20008;-74
2024/02/24 13:00:09;;;;;;;4.13;1.50;;;;;;;;;;5954533;24;20469;-72
2024/02/24 13:02:35;;;;;;;1.45;0.98;;;;;;;;;;5955277;24;20114;-74
2024/02/24 13:05:02;;;;;;;1.63;1.40;;;;;;;;;;5979594;24;20409;-75
2024/02/24 13:07:28;;;;;;;1.27;0.98;;;;;;;;;;5954704;24;20326;-75
2024/02/24 13:09:53;;;;;;;3.10;1.67;;;;;;;;;;5979296;24;20004;-73
2024/02/24 13:12:20;;;;;;;2.25;1.38;;;;;;;;;;5954679;24;20011;-74
2024/02/24 13:14:48;;;;;;;2.42;1.27;;;;;;;;;;5979555;24;20108;-73
2024/02/24 13:17:15;;;;;;;2.08;0.93;;;;;;;;;;5954712;24;20012;-75
2024/02/24 13:19:41;;;;;;;3.65;1.73;;;;;;;;;;5955282;24;20008;-76
2024/02/24 13:22:08;;;;;;;3.63;1.33;;;;;;;;;;5980415;24;20083;-74
2024/02/24 13:24:34;;;;;;;2.05;0.98;;;;;;;;;;5979732;24;20008;-76
2024/02/24 13:27:00;;;;;;;2.53;1.70;;;;;;;;;;5979505;24;20075;-73
2024/02/24 13:29:25;;;;;;;4.05;1.25;;;;;;;;;;5932104;24;20490;-75
2024/02/24 13:31:51;;;;;;;1.40;1.30;;;;;;;;;;5979761;24;20004;-74
2024/02/24 13:34:16;;;;;;;3.08;1.02;;;;;;;;;;5954411;24;20023;-72
2024/02/24 13:36:42;;;;;;;6.60;3.40;;;;;;;;;;5979493;24;20004;-75
2024/02/24 13:39:10;;;;;;;1.77;1.23;;;;;;;;;;5979226;24;20008;-73
2024/02/24 13:41:36;;;;;;;1.13;0.98;;;;;;;;;;5979411;24;20335;-74
2024/02/24 13:44:03;;;;;;;1.42;0.80;;;;;;;;;;5979336;24;20004;-75
2024/02/24 13:46:28;;;;;;;1.40;1.10;;;;;;;;;;5954153;24;20472;-73
2024/02/24 13:49:01;;;;;;;1.20;0.80;;;;;;;;;;5954817;24;20118;-75
2024/02/24 13:51:27;;;;;;;2.88;1.20;;;;;;;;;;5954830;23;20084;-74
2024/02/24 13:53:52;;;;;;;1.88;1.15;;;;;;;;;;5955376;24;20331;-73
2024/02/24 13:56:20;;;;;;;1.65;0.93;;;;;;;;;;5979680;24;20008;-73
2024/02/24 13:58:45;;;;;;;4.78;1.30;;;;;;;;;;5954692;24;20011;-73
2024/02/24 14:01:11;;;;;;;3.55;1.42;;;;;;;;;;5954022;24;20338;-72
2024/02/24 14:03:36;;;;;;;1.38;1.02;;;;;;;;;;5979629;24;20004;-75
2024/02/24 14:06:03;;;;;;;2.05;1.42;;;;;;;;;;5953863;24;20438;-74
2024/02/24 14:08:29;;;;;;;3.83;1.50;;;;;;;;;;5954547;24;20110;-73
2024/02/24 14:10:54;;;;;;;1.10;1.02;;;;;;;;;;5954272;24;20442;-74
2024/02/24 14:13:20;;;;;;;1.83;1.05;;;;;;;;;;5954632;24;20008;-71
2024/02/24 14:15:49;;;;;;;1.20;1.10;;;;;;;;;;5979012;24;20442;-73
2024/02/24 14:18:14;;;;;;;1.73;1.10;;;;;;;;;;5979085;24;20008;-72
2024/02/24 14:20:41;;;;;;;1.77;1.20;;;;;;;;;;5953604;24;20350;-72
2024/02/24 14:23:07;;;;;;;3.33;1.50;;;;;;;;;;5953837;24;20009;-72
2024/02/24 14:25:33;;;;;;;1.02;0.82;;;;;;;;;;5978838;24;20008;-73
2024/02/24 14:27:58;;;;;;;1.98;1.30;;;;;;;;;;5978957;24;20327;-74
2024/02/24 14:30:24;;;;;;;1.30;0.65;;;;;;;;;;5953799;24;20004;-73
2024/02/24 14:32:50;;;;;;;1.77;1.02;;;;;;;;;;5978843;24;20083;-73
2024/02/24 14:35:21;;;;;;;1.42;1.33;;;;;;;;;;5953695;24;20031;-74
2024/02/24 14:37:47;;;;;;;2.78;1.10;;;;;;;;;;5954625;24;20008;-73
2024/02/24 14:40:13;;;;;;;2.78;0.88;;;;;;;;;;5978570;24;20008;-73